Time;durP1;ratioP1;P1;durP2;ratioP2;P2;SDS_P1;SDS_P2;PMS_P1;PMS_P2;Temp;Humidity;BMP_temperature;BMP_pressure;BME280_temperature;BME280_humidity;BME280_pressure;Samples;Min_cycle;Max_cycle;Signal;HPM_P1;HPM_P2
2020/12/29 00:00:26;;;;;;;2.20;2.00;;;6.70;99.90;;;;;;4792447;28;20215;-72
2020/12/29 00:02:51;;;;;;;3.63;2.50;;;6.60;99.90;;;;;;4783434;28;20217;-72
2020/12/29 00:05:13;;;;;;;3.10;2.23;;;6.60;99.90;;;;;;4798026;28;20252;-72
2020/12/29 00:07:35;;;;;;;2.80;2.47;;;6.70;99.90;;;;;;4801195;28;20675;-73
2020/12/29 00:09:57;;;;;;;2.73;2.43;;;6.50;99.90;;;;;;4801048;28;20196;-72
2020/12/29 00:12:19;;;;;;;2.87;2.20;;;6.60;99.90;;;;;;4767659;28;20271;-71
2020/12/29 00:14:41;;;;;;;2.27;2.00;;;6.40;99.90;;;;;;4801908;28;20251;-73
2020/12/29 00:17:03;;;;;;;2.60;2.17;;;6.50;99.90;;;;;;4783773;28;20200;-72
2020/12/29 00:19:27;;;;;;;2.60;2.33;;;6.50;99.90;;;;;;4779245;28;20197;-72
2020/12/29 00:21:50;;;;;;;1.87;1.60;;;6.50;99.90;;;;;;4793674;28;20192;-72
2020/12/29 00:24:13;;;;;;;1.93;1.57;;;6.50;99.90;;;;;;4803553;28;20207;-72
2020/12/29 00:26:35;;;;;;;2.20;1.73;;;6.60;99.90;;;;;;4796260;28;20192;-73
2020/12/29 00:28:57;;;;;;;2.60;2.07;;;6.50;99.90;;;;;;4783465;28;20201;-72
2020/12/29 00:31:21;;;;;;;2.27;1.90;;;6.50;99.90;;;;;;4800776;28;20188;-72
2020/12/29 00:33:43;;;;;;;2.33;1.80;;;6.60;99.90;;;;;;4800888;28;20188;-73
2020/12/29 00:36:07;;;;;;;2.00;1.77;;;6.60;99.90;;;;;;4782778;28;20197;-73
2020/12/29 00:38:31;;;;;;;3.00;2.10;;;6.40;99.90;;;;;;4795777;28;20192;-72
2020/12/29 00:40:53;;;;;;;2.67;1.90;;;6.70;99.90;;;;;;4800956;28;20180;-73
2020/12/29 00:43:15;;;;;;;2.10;1.73;;;6.70;99.90;;;;;;4782335;28;20228;-72
2020/12/29 00:45:37;;;;;;;1.23;1.13;;;6.80;99.90;;;;;;4801531;28;20208;-74
2020/12/29 00:47:59;;;;;;;1.40;1.20;;;7.00;99.90;;;;;;4783233;28;20264;-73
2020/12/29 00:50:21;;;;;;;1.43;1.33;;;7.20;99.90;;;;;;4781998;28;20188;-73
2020/12/29 00:52:44;;;;;;;1.30;1.20;;;7.10;1.00;;;;;;4764565;29;20198;-73
2020/12/29 00:55:19;;;;;;;1.40;1.30;;;7.40;99.90;;;;;;4782621;28;20572;-73
2020/12/29 00:57:44;;;;;;;1.37;1.27;;;7.40;1.00;;;;;;4782563;28;20264;-75
2020/12/29 01:00:06;;;;;;;1.90;1.50;;;7.40;37.90;;;;;;4782304;28;20216;-72
2020/12/29 01:02:45;;;;;;;1.73;1.50;;;7.60;24.80;;;;;;4774830;28;20659;-73
2020/12/29 01:05:12;;;;;;;2.93;2.07;;;7.50;12.90;;;;;;4782246;28;20639;-72
2020/12/29 01:07:37;;;;;;;4.30;3.40;;;7.40;22.10;;;;;;4780836;28;20216;-74
2020/12/29 01:10:00;;;;;;;4.47;3.10;;;7.50;1.00;;;;;;4781229;28;20223;-77
2020/12/29 01:12:25;;;;;;;2.77;2.40;;;7.40;1.00;;;;;;4792739;28;20212;-73
2020/12/29 01:14:47;;;;;;;2.77;2.30;;;7.40;1.00;;;;;;4783026;28;20232;-73
2020/12/29 01:17:17;;;;;;;3.63;2.50;;;7.20;1.00;;;;;;4765228;28;20198;-72
2020/12/29 01:19:40;;;;;;;3.33;2.73;;;7.10;1.00;;;;;;4782081;28;20283;-75
2020/12/29 01:22:02;;;;;;;3.27;2.60;;;6.80;99.90;;;;;;4782439;28;20205;-77
2020/12/29 01:24:24;;;;;;;4.00;2.93;;;6.90;99.90;;;;;;4782897;28;20236;-75
2020/12/29 01:26:47;;;;;;;3.97;3.30;;;6.80;99.90;;;;;;4783313;28;20251;-76
2020/12/29 01:29:09;;;;;;;3.10;2.50;;;6.80;88.60;;;;;;4799763;28;20238;-76
2020/12/29 01:31:32;;;;;;;3.40;2.60;;;6.70;99.90;;;;;;4781610;28;20196;-78
2020/12/29 01:33:56;;;;;;;2.53;2.07;;;6.70;99.90;;;;;;4799292;28;20196;-80
2020/12/29 01:36:18;;;;;;;2.47;2.17;;;6.70;99.90;;;;;;4799341;28;20188;-79
2020/12/29 01:38:41;;;;;;;2.13;1.90;;;6.60;99.90;;;;;;4782718;28;20201;-80
2020/12/29 01:41:03;;;;;;;1.83;1.67;;;6.70;99.90;;;;;;4799430;28;20185;-80
2020/12/29 01:43:29;;;;;;;2.30;1.83;;;6.60;99.90;;;;;;4781973;28;20204;-76
2020/12/29 01:45:51;;;;;;;2.63;2.23;;;6.60;99.90;;;;;;4781969;28;20240;-74
2020/12/29 01:48:13;;;;;;;2.90;2.33;;;6.70;99.90;;;;;;4798444;28;20188;-74
2020/12/29 01:50:35;;;;;;;3.60;3.17;;;6.70;99.90;;;;;;4799666;28;20513;-80
2020/12/29 01:52:58;;;;;;;3.07;2.67;;;6.70;99.90;;;;;;4799766;28;20196;-75
2020/12/29 01:55:20;;;;;;;3.93;2.73;;;6.60;99.90;;;;;;4799723;28;20243;-76
2020/12/29 01:57:42;;;;;;;3.23;2.63;;;6.60;99.90;;;;;;4798925;28;20245;-75
2020/12/29 02:00:08;;;;;;;3.10;2.63;;;7.10;99.90;;;;;;4799772;28;20219;-74
2020/12/29 02:02:35;;;;;;;3.47;2.23;;;6.70;99.90;;;;;;4791694;28;20191;-80
2020/12/29 02:04:57;;;;;;;2.33;2.13;;;6.70;99.90;;;;;;4799579;28;20678;-72
2020/12/29 02:07:20;;;;;;;2.57;2.20;;;6.70;99.90;;;;;;4798919;28;20674;-72
2020/12/29 02:09:42;;;;;;;2.97;2.10;;;6.70;99.90;;;;;;4793583;28;20236;-72
2020/12/29 02:12:26;;;;;;;2.20;2.00;;;6.70;99.90;;;;;;4781365;28;20201;-74
2020/12/29 02:14:48;;;;;;;3.03;1.77;;;6.60;1.00;;;;;;4763542;29;20209;-74
2020/12/29 02:17:11;;;;;;;2.00;1.77;;;6.60;1.00;;;;;;4762729;28;20658;-73
2020/12/29 02:19:33;;;;;;;2.10;1.70;;;6.70;1.00;;;;;;4799061;28;20192;-82
2020/12/29 02:21:55;;;;;;;1.70;1.60;;;6.60;1.00;;;;;;4799065;28;20192;-77
2020/12/29 02:24:18;;;;;;;2.47;1.37;;;6.60;1.00;;;;;;4781796;28;20256;-73
2020/12/29 02:26:40;;;;;;;1.60;1.40;;;6.70;97.20;;;;;;4781776;28;20332;-73
2020/12/29 02:29:04;;;;;;;1.93;1.70;;;6.70;99.90;;;;;;4788877;28;20732;-73
2020/12/29 02:31:27;;;;;;;1.40;1.10;;;6.70;99.90;;;;;;4798897;28;20180;-74
2020/12/29 02:33:49;;;;;;;1.50;1.40;;;6.80;1.00;;;;;;4781664;28;20281;-72
2020/12/29 02:36:11;;;;;;;1.23;1.13;;;6.80;1.00;;;;;;4780274;28;20717;-77
2020/12/29 02:38:33;;;;;;;1.30;1.20;;;6.80;1.00;;;;;;4781912;28;20181;-77
2020/12/29 02:40:56;;;;;;;1.60;1.03;;;6.80;1.00;;;;;;4798889;28;20200;-72
2020/12/29 02:43:18;;;;;;;1.07;1.00;;;6.80;99.90;;;;;;4798418;28;20652;-76
2020/12/29 02:45:41;;;;;;;1.07;1.00;;;6.80;99.90;;;;;;4783824;28;20255;-75
2020/12/29 02:48:03;;;;;;;1.17;1.07;;;6.90;1.00;;;;;;4802567;28;20196;-73
2020/12/29 02:50:29;;;;;;;1.20;1.10;;;6.80;1.00;;;;;;4784802;28;20801;-73
2020/12/29 02:52:52;;;;;;;1.10;1.00;;;6.70;1.00;;;;;;4785142;28;20259;-78
2020/12/29 02:55:14;;;;;;;1.40;1.30;;;6.80;1.00;;;;;;4802371;28;20643;-76
2020/12/29 02:57:37;;;;;;;1.40;1.10;;;6.80;1.00;;;;;;4784804;28;20201;-73
2020/12/29 02:59:59;;;;;;;0.90;0.90;;;6.80;1.00;;;;;;4802446;28;20244;-79
2020/12/29 03:02:21;;;;;;;0.90;0.90;;;6.80;1.00;;;;;;4801041;28;20658;-75
2020/12/29 03:04:43;;;;;;;1.17;1.07;;;6.80;99.90;;;;;;4785564;28;20193;-76
2020/12/29 03:07:05;;;;;;;1.07;1.07;;;6.80;1.00;;;;;;4803049;28;20192;-74
2020/12/29 03:09:27;;;;;;;0.87;0.87;;;6.80;54.10;;;;;;4802881;28;20626;-82
2020/12/29 03:11:49;;;;;;;0.90;0.90;;;6.90;1.00;;;;;;4803226;28;20198;-75
2020/12/29 03:14:13;;;;;;;1.23;1.00;;;6.80;1.00;;;;;;4785909;28;20213;-72
2020/12/29 03:16:36;;;;;;;1.23;1.13;;;6.80;1.00;;;;;;4803443;28;20554;-77
2020/12/29 03:19:01;;;;;;;1.27;1.17;;;6.70;38.50;;;;;;4802952;28;20263;-72
2020/12/29 03:21:23;;;;;;;2.10;1.53;;;6.80;1.00;;;;;;4802517;28;20200;-77
2020/12/29 03:23:46;;;;;;;1.87;1.57;;;6.80;99.90;;;;;;4785757;28;20200;-77
2020/12/29 03:26:08;;;;;;;1.87;1.77;;;6.80;99.90;;;;;;4802871;28;20625;-74
2020/12/29 03:28:30;;;;;;;2.40;1.90;;;6.80;99.90;;;;;;4797440;28;20236;-78
2020/12/29 03:30:53;;;;;;;2.37;1.70;;;6.80;1.00;;;;;;4802592;28;20254;-73
2020/12/29 03:33:16;;;;;;;1.77;1.67;;;6.80;1.00;;;;;;4796685;28;20228;-72
2020/12/29 03:35:38;;;;;;;3.27;2.97;;;6.50;99.90;;;;;;4786296;28;20265;-73
2020/12/29 03:38:00;;;;;;;5.60;5.00;;;6.80;1.00;;;;;;4785595;28;20204;-78
2020/12/29 03:40:22;;;;;;;7.77;6.97;;;6.60;1.00;;;;;;4785278;28;20196;-72
2020/12/29 03:42:44;;;;;;;22.17;17.57;;;6.40;99.90;;;;;;4802779;28;20281;-79
2020/12/29 03:45:06;;;;;;;13.27;10.50;;;6.60;99.90;;;;;;4803073;28;20582;-73
2020/12/29 03:47:29;;;;;;;9.60;7.40;;;6.50;24.50;;;;;;4785323;28;20303;-72
2020/12/29 03:49:51;;;;;;;6.77;5.50;;;6.40;99.90;;;;;;4803111;28;20255;-79
2020/12/29 03:52:13;;;;;;;2.30;2.10;;;6.50;99.90;;;;;;4802112;28;20184;-72
2020/12/29 03:54:35;;;;;;;4.20;3.80;;;6.40;99.90;;;;;;4803093;28;20191;-76
2020/12/29 03:56:57;;;;;;;3.30;2.97;;;6.30;1.00;;;;;;4784002;28;20260;-77
2020/12/29 03:59:19;;;;;;;3.00;2.70;;;6.30;1.00;;;;;;4802177;28;20298;-77
2020/12/29 04:01:41;;;;;;;3.40;3.10;;;6.30;1.00;;;;;;4801024;28;20192;-72
2020/12/29 04:04:04;;;;;;;3.60;3.20;;;6.30;99.90;;;;;;4785111;28;20207;-71
2020/12/29 04:06:26;;;;;;;1.90;1.80;;;6.20;99.90;;;;;;4785120;28;20220;-74
2020/12/29 04:08:49;;;;;;;3.03;2.20;;;6.20;1.00;;;;;;4785091;28;20698;-72
2020/12/29 04:11:11;;;;;;;2.60;2.40;;;6.20;1.00;;;;;;4781574;28;20355;-75
2020/12/29 04:13:54;;;;;;;3.13;2.77;;;6.00;1.00;;;;;;4802728;28;20188;-75
2020/12/29 04:16:36;;;;;;;2.97;2.50;;;6.10;1.00;;;;;;4777034;28;20547;-73
2020/12/29 04:19:19;;;;;;;2.43;2.23;;;6.10;1.00;;;;;;4787359;28;20196;-72
2020/12/29 04:21:41;;;;;;;2.23;2.03;;;6.10;1.00;;;;;;4783353;28;20192;-74
2020/12/29 04:24:03;;;;;;;2.37;2.17;;;6.10;1.00;;;;;;4802464;28;20188;-72
2020/12/29 04:26:25;;;;;;;2.43;2.23;;;6.10;1.00;;;;;;4801936;28;20251;-73
2020/12/29 04:28:47;;;;;;;1.87;1.77;;;6.10;1.00;;;;;;4802347;28;20243;-73
2020/12/29 04:31:11;;;;;;;2.10;1.97;;;6.10;1.00;;;;;;4802382;28;20188;-81
2020/12/29 04:33:33;;;;;;;2.10;1.80;;;6.10;99.90;;;;;;4785040;28;20188;-76
2020/12/29 04:35:56;;;;;;;1.73;1.63;;;6.20;99.90;;;;;;4801952;28;20184;-74
2020/12/29 04:38:18;;;;;;;1.70;1.60;;;6.10;99.90;;;;;;4802436;28;20210;-75
2020/12/29 04:40:40;;;;;;;1.90;1.40;;;6.20;99.90;;;;;;4784720;28;20256;-75
2020/12/29 04:43:02;;;;;;;1.63;1.43;;;6.30;1.00;;;;;;4784792;28;20248;-78
2020/12/29 04:45:25;;;;;;;1.73;1.63;;;6.30;99.40;;;;;;4802099;28;20223;-74
2020/12/29 04:47:48;;;;;;;1.70;1.57;;;6.30;1.00;;;;;;4801719;28;20188;-78
2020/12/29 04:50:11;;;;;;;1.77;1.40;;;6.40;1.00;;;;;;4801498;28;20192;-75
2020/12/29 04:52:36;;;;;;;1.53;1.40;;;6.40;1.00;;;;;;4801974;28;20188;-79
2020/12/29 04:55:00;;;;;;;1.63;1.53;;;6.50;99.90;;;;;;4801901;28;20196;-75
2020/12/29 04:57:24;;;;;;;1.83;1.70;;;6.50;1.00;;;;;;4801560;28;20196;-77
2020/12/29 04:59:46;;;;;;;1.80;1.50;;;6.60;99.90;;;;;;4801579;28;20686;-74
2020/12/29 05:02:08;;;;;;;3.63;1.83;;;6.60;99.90;;;;;;4781121;28;20244;-79
2020/12/29 05:04:30;;;;;;;1.77;1.50;;;6.70;99.90;;;;;;4784738;28;20247;-76
2020/12/29 05:06:53;;;;;;;1.77;1.63;;;6.60;99.90;;;;;;4801528;28;20216;-74
2020/12/29 05:09:18;;;;;;;1.40;1.30;;;6.60;1.00;;;;;;4799796;28;20271;-74
2020/12/29 05:11:40;;;;;;;1.67;1.57;;;6.60;99.90;;;;;;4784354;28;20196;-74
2020/12/29 05:14:03;;;;;;;1.73;1.63;;;6.60;1.00;;;;;;4768009;28;20264;-74
2020/12/29 05:16:25;;;;;;;2.07;1.87;;;6.70;1.00;;;;;;4767100;28;20817;-74
2020/12/29 05:18:47;;;;;;;2.20;1.97;;;6.70;1.00;;;;;;4801556;28;20247;-76
2020/12/29 05:21:09;;;;;;;2.47;2.00;;;6.70;1.00;;;;;;4783488;28;20727;-72
2020/12/29 05:23:31;;;;;;;2.00;1.80;;;6.60;69.90;;;;;;4783959;28;20244;-72
2020/12/29 05:25:55;;;;;;;2.10;1.90;;;6.50;94.80;;;;;;4784057;28;20225;-73
2020/12/29 05:28:17;;;;;;;2.70;1.93;;;6.40;1.00;;;;;;4800418;28;20220;-73
2020/12/29 05:30:40;;;;;;;2.27;2.07;;;6.00;1.00;;;;;;4801326;28;20251;-74
2020/12/29 05:33:02;;;;;;;2.90;2.40;;;6.10;1.00;;;;;;4801355;28;20251;-73
2020/12/29 05:35:25;;;;;;;3.13;2.83;;;5.90;1.00;;;;;;4783630;28;20197;-75
2020/12/29 05:37:48;;;;;;;3.93;3.53;;;5.40;52.10;;;;;;4801595;28;20599;-74
2020/12/29 05:40:25;;;;;;;3.80;3.37;;;5.50;50.70;;;;;;4784259;28;20204;-80
2020/12/29 05:42:49;;;;;;;3.90;2.37;;;5.50;94.80;;;;;;4800859;28;20239;-73
2020/12/29 05:45:13;;;;;;;2.30;2.10;;;5.40;92.90;;;;;;4800973;28;20196;-82
2020/12/29 05:47:35;;;;;;;2.20;2.00;;;5.30;99.90;;;;;;4783607;28;20220;-73
2020/12/29 05:50:05;;;;;;;2.60;1.37;;;5.40;99.90;;;;;;4800632;28;20196;-75
2020/12/29 05:52:27;;;;;;;1.90;1.17;;;5.30;99.90;;;;;;4800692;28;20176;-72
2020/12/29 05:54:50;;;;;;;1.60;1.03;;;5.30;99.90;;;;;;4800627;28;20239;-76
2020/12/29 05:57:13;;;;;;;1.77;0.80;;;5.30;99.90;;;;;;4791543;28;20205;-75
2020/12/29 05:59:37;;;;;;;2.00;0.87;;;5.30;99.90;;;;;;4779738;28;20220;-79
2020/12/29 06:01:59;;;;;;;1.20;1.10;;;5.20;99.90;;;;;;4781105;28;20262;-73
2020/12/29 06:04:22;;;;;;;1.00;0.90;;;5.20;99.90;;;;;;4800783;28;20188;-77
2020/12/29 06:06:45;;;;;;;0.80;0.80;;;5.00;99.90;;;;;;4800773;28;20628;-74
2020/12/29 06:09:09;;;;;;;1.33;0.60;;;5.10;99.90;;;;;;4782890;28;20224;-75
2020/12/29 06:11:52;;;;;;;1.57;0.50;;;4.90;99.90;;;;;;4800369;28;21035;-75
2020/12/29 06:14:16;;;;;;;0.87;0.80;;;4.60;99.90;;;;;;4800820;28;20176;-73
2020/12/29 06:16:41;;;;;;;1.63;0.90;;;4.70;99.90;;;;;;4783673;28;20259;-76
2020/12/29 06:19:03;;;;;;;0.87;0.63;;;5.00;99.90;;;;;;4782615;28;20205;-76
2020/12/29 06:21:29;;;;;;;1.60;0.77;;;4.70;99.90;;;;;;4800236;28;20238;-75
2020/12/29 06:23:52;;;;;;;0.90;0.90;;;4.80;99.90;;;;;;4800658;28;20188;-76
2020/12/29 06:26:18;;;;;;;1.00;0.90;;;4.60;99.90;;;;;;4811829;28;20275;-74
2020/12/29 06:28:47;;;;;;;1.13;0.83;;;4.60;99.90;;;;;;4796209;28;20246;-73
2020/12/29 06:31:10;;;;;;;0.80;0.80;;;4.50;99.90;;;;;;4792239;28;20188;-74
2020/12/29 06:33:34;;;;;;;0.70;0.70;;;4.30;99.90;;;;;;4799710;28;20200;-73
2020/12/29 06:35:56;;;;;;;1.27;0.70;;;4.30;99.90;;;;;;4780893;28;20204;-74
2020/12/29 06:38:23;;;;;;;0.50;0.50;;;4.20;99.90;;;;;;4796321;28;20192;-76
2020/12/29 06:40:46;;;;;;;0.50;0.50;;;4.10;99.90;;;;;;4800706;28;20196;-79
2020/12/29 06:43:09;;;;;;;0.47;0.47;;;4.00;99.90;;;;;;4809051;28;20195;-72
2020/12/29 06:45:36;;;;;;;0.60;0.60;;;3.80;99.90;;;;;;4800758;28;20251;-76
2020/12/29 06:47:58;;;;;;;1.70;0.67;;;3.70;99.90;;;;;;4800505;28;20658;-77
2020/12/29 06:50:23;;;;;;;1.00;0.60;;;3.60;99.90;;;;;;4800496;28;20737;-77
2020/12/29 06:52:52;;;;;;;0.77;0.70;;;3.40;99.90;;;;;;4800345;28;20591;-75
2020/12/29 06:55:19;;;;;;;0.50;0.50;;;3.60;99.90;;;;;;4781488;29;20251;-75
2020/12/29 08:01:13;;;;;;;0.83;0.83;;;4.20;99.90;;;;;;4919015;27;861154;-73
2020/12/29 08:03:35;;;;;;;4.57;1.83;;;4.20;99.90;;;;;;4912875;28;20237;-74
2020/12/29 08:05:57;;;;;;;1.90;1.70;;;4.20;99.90;;;;;;4915145;28;20210;-72
2020/12/29 08:08:19;;;;;;;3.07;2.40;;;4.30;99.90;;;;;;4931839;28;20282;-73
2020/12/29 08:10:44;;;;;;;2.30;1.97;;;4.30;99.90;;;;;;4931817;28;20199;-77
2020/12/29 08:13:07;;;;;;;3.00;2.47;;;4.40;99.90;;;;;;4932540;28;20213;-75
2020/12/29 08:15:30;;;;;;;2.97;2.67;;;4.30;99.90;;;;;;4913461;28;20191;-75
2020/12/29 08:18:08;;;;;;;3.03;2.50;;;4.20;98.00;;;;;;4912738;28;20237;-77
2020/12/29 08:20:31;;;;;;;3.33;2.83;;;4.20;99.90;;;;;;4912849;28;20216;-73
2020/12/29 08:22:55;;;;;;;6.70;2.63;;;4.20;95.20;;;;;;4912865;28;20184;-75
2020/12/29 08:25:18;;;;;;;2.33;2.13;;;4.10;96.80;;;;;;4930185;28;20192;-74
2020/12/29 08:27:43;;;;;;;3.50;2.90;;;4.10;93.00;;;;;;4931250;28;20871;-72
2020/12/29 08:30:05;;;;;;;3.10;2.53;;;4.00;91.40;;;;;;4932127;28;20669;-75
2020/12/29 08:32:27;;;;;;;3.03;2.73;;;4.10;93.70;;;;;;4931909;28;20233;-73
2020/12/29 08:34:50;;;;;;;3.37;2.77;;;4.20;91.80;;;;;;4914518;28;20577;-73
2020/12/29 08:37:18;;;;;;;3.90;2.80;;;4.00;86.40;;;;;;4918780;28;20196;-72
2020/12/29 08:39:53;;;;;;;3.33;2.80;;;4.20;88.50;;;;;;4927805;28;20212;-73
2020/12/29 08:42:18;;;;;;;2.53;2.30;;;4.00;90.70;;;;;;4912194;28;20253;-73
2020/12/29 08:44:43;;;;;;;2.60;2.40;;;4.00;80.90;;;;;;4914980;28;20264;-74
2020/12/29 08:47:10;;;;;;;2.50;2.13;;;4.00;83.50;;;;;;4931628;28;20237;-72
2020/12/29 08:49:32;;;;;;;2.47;2.27;;;3.90;60.70;;;;;;4929894;28;20773;-74
2020/12/29 08:51:56;;;;;;;3.20;2.57;;;4.00;68.00;;;;;;4927648;28;20199;-74
2020/12/29 08:54:18;;;;;;;2.27;2.07;;;4.00;59.90;;;;;;4931617;28;20208;-74
2020/12/29 08:56:41;;;;;;;2.87;2.43;;;4.10;55.70;;;;;;4919664;28;20719;-73
2020/12/29 08:59:11;;;;;;;1.80;1.47;;;4.10;49.60;;;;;;4923792;28;20274;-73
2020/12/29 09:01:35;;;;;;;2.00;1.80;;;4.10;47.90;;;;;;4906839;28;20235;-75
2020/12/29 09:03:57;;;;;;;1.83;1.63;;;4.20;17.70;;;;;;4916916;28;20602;-73
2020/12/29 09:06:19;;;;;;;2.07;1.70;;;4.30;12.20;;;;;;4912189;28;20188;-74
2020/12/29 09:08:42;;;;;;;1.80;1.70;;;4.40;10.20;;;;;;4899469;28;20193;-73
2020/12/29 09:11:14;;;;;;;1.60;1.50;;;4.40;5.70;;;;;;4902607;28;20176;-73
2020/12/29 09:13:37;;;;;;;1.60;1.37;;;4.50;1.40;;;;;;4902623;28;20207;-72
2020/12/29 09:16:09;;;;;;;2.53;1.93;;;4.60;1.00;;;;;;4899672;28;20180;-73
2020/12/29 09:18:38;;;;;;;2.20;1.90;;;4.60;1.00;;;;;;4886403;28;20246;-75
2020/12/29 09:21:18;;;;;;;2.10;1.77;;;4.80;1.00;;;;;;4909325;28;20200;-75
2020/12/29 09:23:41;;;;;;;2.17;1.90;;;4.80;1.00;;;;;;4896424;28;20193;-75
2020/12/29 09:26:03;;;;;;;1.63;1.53;;;4.90;1.00;;;;;;4886698;28;20235;-75
2020/12/29 09:28:31;;;;;;;2.67;1.60;;;5.00;1.00;;;;;;4897520;28;20246;-75
2020/12/29 09:31:01;;;;;;;2.13;1.73;;;5.10;1.00;;;;;;4878953;28;20201;-76
2020/12/29 09:33:24;;;;;;;1.73;1.40;;;5.30;1.00;;;;;;4897859;28;20192;-76
2020/12/29 09:35:46;;;;;;;1.97;1.60;;;5.50;1.00;;;;;;4908047;28;20245;-76
2020/12/29 09:38:13;;;;;;;2.07;1.80;;;6.20;1.00;;;;;;4915480;28;20249;-75
2020/12/29 09:40:36;;;;;;;3.53;2.17;;;9.30;1.00;;;;;;4897954;28;20212;-76
2020/12/29 09:42:58;;;;;;;1.80;1.53;;;9.30;1.00;;;;;;4897877;28;20597;-75
2020/12/29 09:45:21;;;;;;;1.70;1.60;;;11.70;1.00;;;;;;4903828;28;20579;-75
2020/12/29 09:47:43;;;;;;;1.40;1.23;;;11.90;1.00;;;;;;4917473;28;20237;-76
2020/12/29 09:50:05;;;;;;;1.43;1.33;;;13.10;1.00;;;;;;4917878;28;20203;-75
2020/12/29 09:52:29;;;;;;;1.40;1.30;;;14.00;1.00;;;;;;4911469;28;20248;-74
2020/12/29 09:54:51;;;;;;;1.13;1.07;;;14.70;1.00;;;;;;4908445;28;20648;-74
2020/12/29 09:57:14;;;;;;;1.23;1.13;;;14.80;1.00;;;;;;4917297;28;20183;-75
2020/12/29 09:59:36;;;;;;;0.80;0.80;;;14.50;1.00;;;;;;4882002;28;20232;-74
2020/12/29 10:01:58;;;;;;;0.90;0.90;;;14.10;1.00;;;;;;4909230;28;20232;-75
2020/12/29 10:04:20;;;;;;;0.70;0.70;;;13.70;1.00;;;;;;4917163;28;20196;-76
2020/12/29 10:06:42;;;;;;;0.80;0.80;;;12.60;1.00;;;;;;4916694;28;20226;-75
2020/12/29 10:09:04;;;;;;;0.87;0.87;;;11.60;1.00;;;;;;4917263;28;20210;-73
2020/12/29 10:11:27;;;;;;;0.80;0.80;;;10.60;1.00;;;;;;4916305;28;20200;-73
2020/12/29 10:13:50;;;;;;;0.80;0.80;;;9.10;1.00;;;;;;4915996;28;20187;-74
2020/12/29 10:16:12;;;;;;;0.90;0.90;;;9.10;1.00;;;;;;4903357;28;20641;-75
2020/12/29 10:18:34;;;;;;;1.13;1.00;;;8.40;1.00;;;;;;4898191;28;20526;-75
2020/12/29 10:20:56;;;;;;;1.13;0.87;;;8.30;1.00;;;;;;4880200;28;20221;-72
2020/12/29 10:23:18;;;;;;;0.97;0.97;;;8.00;1.00;;;;;;4899536;28;20185;-75
2020/12/29 10:25:40;;;;;;;1.60;1.50;;;7.90;1.00;;;;;;4897078;28;20247;-74
2020/12/29 10:28:02;;;;;;;0.73;0.70;;;7.80;1.00;;;;;;4899569;28;20262;-75
2020/12/29 10:30:25;;;;;;;1.20;1.10;;;7.70;1.00;;;;;;4897635;28;20711;-75
2020/12/29 10:32:47;;;;;;;0.73;0.73;;;7.50;1.00;;;;;;4907865;28;20185;-74
2020/12/29 10:35:10;;;;;;;1.07;0.97;;;7.40;52.70;;;;;;4906440;28;20244;-73
2020/12/29 10:37:32;;;;;;;1.20;1.10;;;7.40;1.00;;;;;;4898319;28;20204;-75
2020/12/29 10:39:54;;;;;;;1.10;1.00;;;7.30;99.90;;;;;;4916199;28;20261;-75
2020/12/29 10:42:16;;;;;;;1.27;1.00;;;7.40;1.00;;;;;;4913902;28;20230;-77
2020/12/29 10:44:38;;;;;;;2.50;1.80;;;7.40;1.00;;;;;;4910925;28;20192;-77
2020/12/29 10:47:01;;;;;;;1.23;1.00;;;7.40;88.20;;;;;;4896982;28;20200;-78
2020/12/29 10:49:23;;;;;;;5.27;4.67;;;7.50;1.00;;;;;;4896855;28;20274;-76
2020/12/29 10:51:45;;;;;;;0.97;0.90;;;7.50;1.00;;;;;;4902686;28;20204;-74
2020/12/29 10:54:07;;;;;;;1.40;1.30;;;7.60;1.00;;;;;;4916173;28;20180;-74
2020/12/29 10:56:29;;;;;;;2.27;1.70;;;7.80;56.90;;;;;;4916041;28;20196;-76
2020/12/29 10:58:51;;;;;;;1.27;1.03;;;7.70;1.00;;;;;;4916126;28;20184;-72
2020/12/29 11:01:15;;;;;;;1.10;1.00;;;7.90;27.60;;;;;;4911506;28;20279;-76
2020/12/29 11:03:38;;;;;;;0.70;0.70;;;7.80;1.00;;;;;;4915235;28;20200;-80
2020/12/29 11:06:00;;;;;;;0.80;0.80;;;7.90;1.00;;;;;;4916253;28;20184;-75
2020/12/29 11:08:26;;;;;;;1.00;0.90;;;8.00;1.00;;;;;;4885587;28;20197;-75
2020/12/29 11:10:49;;;;;;;1.20;1.10;;;8.10;1.00;;;;;;4881529;28;20193;-76
2020/12/29 11:13:11;;;;;;;0.90;0.90;;;8.70;1.00;;;;;;4885499;28;20193;-76
2020/12/29 11:15:35;;;;;;;0.60;0.60;;;8.80;1.00;;;;;;4878226;28;20197;-75
2020/12/29 11:17:57;;;;;;;0.70;0.70;;;8.60;1.00;;;;;;4896166;28;20208;-75
2020/12/29 11:20:20;;;;;;;0.70;0.70;;;8.60;1.00;;;;;;4897344;28;20624;-76
2020/12/29 11:22:44;;;;;;;0.87;0.83;;;8.60;1.00;;;;;;4898804;28;20653;-77
2020/12/29 11:25:06;;;;;;;0.67;0.67;;;8.60;1.00;;;;;;4915698;28;20188;-75
2020/12/29 11:27:28;;;;;;;0.67;0.67;;;8.60;1.00;;;;;;4915931;28;20176;-74
2020/12/29 11:29:50;;;;;;;1.70;0.70;;;8.60;1.00;;;;;;4915269;28;20183;-75
2020/12/29 11:32:12;;;;;;;0.70;0.70;;;8.70;1.00;;;;;;4877023;28;20238;-74
2020/12/29 11:34:34;;;;;;;0.70;0.70;;;8.70;1.00;;;;;;4904269;28;20201;-75
2020/12/29 11:36:57;;;;;;;0.70;0.70;;;8.80;1.00;;;;;;4895789;28;20196;-73
2020/12/29 11:39:19;;;;;;;0.83;0.70;;;8.80;1.00;;;;;;4896516;28;20181;-74
2020/12/29 11:41:41;;;;;;;0.60;0.60;;;8.90;1.00;;;;;;4896765;28;20200;-74
2020/12/29 11:44:03;;;;;;;1.00;0.90;;;9.00;1.00;;;;;;4915968;28;20191;-76
2020/12/29 11:46:25;;;;;;;0.73;0.67;;;9.30;1.00;;;;;;4896807;28;20203;-76
2020/12/29 11:48:48;;;;;;;0.63;0.63;;;9.70;1.00;;;;;;4909250;28;20657;-73
2020/12/29 11:51:10;;;;;;;0.87;0.80;;;10.10;1.00;;;;;;4908659;28;20219;-73
2020/12/29 11:53:34;;;;;;;0.70;0.70;;;10.20;1.00;;;;;;4895902;28;20243;-75
2020/12/29 11:55:56;;;;;;;0.60;0.60;;;11.30;1.00;;;;;;4895133;28;20185;-73
2020/12/29 11:58:18;;;;;;;0.60;0.60;;;12.50;1.00;;;;;;4895417;28;20200;-75
2020/12/29 12:00:40;;;;;;;0.30;0.30;;;14.20;1.00;;;;;;4900369;28;20228;-73
2020/12/29 12:03:02;;;;;;;2.37;2.20;;;18.50;1.00;;;;;;4905302;28;20641;-73
2020/12/29 12:05:24;;;;;;;0.53;0.50;;;19.80;1.00;;;;;;4899955;28;20188;-74
2020/12/29 12:07:47;;;;;;;0.10;0.10;;;21.10;1.00;;;;;;4876859;28;20205;-74
2020/12/29 12:10:10;;;;;;;0.00;0.00;;;21.30;1.00;;;;;;4882695;28;20282;-77
2020/12/29 12:12:32;;;;;;;0.00;0.00;;;22.10;99.90;;;;;;4913907;28;20192;-74
2020/12/29 12:14:54;;;;;;;0.00;0.00;;;22.80;99.90;;;;;;4915217;28;20237;-76
2020/12/29 12:17:16;;;;;;;0.00;0.00;;;23.30;1.00;;;;;;4913797;28;20245;-74
2020/12/29 12:19:38;;;;;;;0.00;0.00;;;22.90;1.00;;;;;;4899909;28;20729;-74
2020/12/29 12:22:03;;;;;;;0.00;0.00;;;22.90;99.90;;;;;;4897149;28;20196;-75
2020/12/29 12:24:25;;;;;;;0.10;0.10;;;23.40;99.90;;;;;;4889364;28;20190;-75
2020/12/29 12:26:48;;;;;;;0.10;0.10;;;23.30;99.90;;;;;;4906397;28;20722;-78
2020/12/29 12:29:12;;;;;;;0.10;0.10;;;21.80;1.00;;;;;;4907330;28;20192;-76
2020/12/29 12:31:34;;;;;;;0.10;0.10;;;21.90;99.90;;;;;;4877326;28;20693;-75
2020/12/29 12:33:56;;;;;;;0.10;0.10;;;22.10;99.90;;;;;;4894732;28;20193;-76
2020/12/29 12:36:18;;;;;;;0.00;0.00;;;22.40;1.00;;;;;;4895742;28;20185;-77
2020/12/29 12:38:42;;;;;;;0.10;0.10;;;22.30;1.00;;;;;;4898165;28;20197;-74
2020/12/29 12:41:07;;;;;;;0.10;0.10;;;22.20;1.00;;;;;;4895145;28;20181;-76
2020/12/29 12:43:30;;;;;;;0.03;0.03;;;21.80;1.00;;;;;;4886396;28;20602;-75
2020/12/29 12:45:52;;;;;;;0.10;0.10;;;21.70;99.90;;;;;;4896890;28;20181;-79
2020/12/29 12:48:14;;;;;;;0.10;0.10;;;21.70;99.90;;;;;;4898677;28;20627;-73
2020/12/29 12:50:36;;;;;;;0.00;0.00;;;21.40;99.90;;;;;;4898663;28;20325;-76
2020/12/29 12:52:58;;;;;;;0.10;0.10;;;21.10;99.90;;;;;;4881591;28;20251;-75
2020/12/29 12:55:20;;;;;;;0.10;0.10;;;21.20;99.90;;;;;;4898706;28;20201;-75
2020/12/29 12:57:42;;;;;;;0.10;0.10;;;21.60;99.90;;;;;;4917162;28;20229;-75
2020/12/29 13:00:05;;;;;;;0.07;0.07;;;22.00;99.90;;;;;;4917754;28;20231;-75
2020/12/29 13:02:27;;;;;;;0.07;0.07;;;22.00;1.00;;;;;;4913813;28;20626;-75
2020/12/29 13:04:49;;;;;;;0.10;0.10;;;22.10;99.90;;;;;;4917112;28;20185;-74
2020/12/29 13:07:11;;;;;;;0.00;0.00;;;21.60;99.90;;;;;;4917603;28;20241;-74
2020/12/29 13:09:33;;;;;;;0.00;0.00;;;21.00;99.90;;;;;;4917509;28;20657;-75
2020/12/29 13:11:55;;;;;;;0.10;0.10;;;18.60;1.00;;;;;;4917275;28;20204;-74
2020/12/29 13:14:17;;;;;;;0.00;0.00;;;18.40;99.90;;;;;;4898693;28;20205;-74
2020/12/29 13:16:40;;;;;;;0.07;0.07;;;15.70;1.00;;;;;;4917618;28;20188;-74
2020/12/29 13:19:03;;;;;;;0.30;0.10;;;15.50;99.90;;;;;;4900041;28;20196;-73
2020/12/29 13:21:25;;;;;;;0.10;0.10;;;14.40;99.90;;;;;;4906299;28;20200;-75
2020/12/29 13:23:47;;;;;;;0.20;0.20;;;13.00;1.00;;;;;;4911573;28;20185;-74
2020/12/29 13:26:11;;;;;;;0.40;0.40;;;12.70;99.90;;;;;;4917053;28;20249;-75
2020/12/29 13:28:34;;;;;;;0.43;0.43;;;12.10;99.90;;;;;;4916238;28;20196;-74
2020/12/29 13:30:56;;;;;;;0.40;0.40;;;11.50;99.90;;;;;;4911414;28;20208;-75
2020/12/29 13:33:19;;;;;;;0.47;0.47;;;11.10;99.90;;;;;;4907675;28;20192;-76
2020/12/29 13:35:41;;;;;;;0.60;0.60;;;10.80;99.90;;;;;;4902139;28;20192;-74
2020/12/29 13:38:03;;;;;;;2.07;0.70;;;10.40;99.90;;;;;;4906214;28;20185;-75
2020/12/29 13:40:25;;;;;;;0.67;0.67;;;10.00;1.00;;;;;;4908504;28;20188;-74
2020/12/29 13:42:49;;;;;;;0.70;0.70;;;10.00;99.90;;;;;;4907856;28;20242;-73